Time;durP1;ratioP1;P1;durP2;ratioP2;P2;SDS_P1;SDS_P2;PMS_P1;PMS_P2;Temp;Humidity;BMP_temperature;BMP_pressure;BME280_temperature;BME280_humidity;BME280_pressure;Samples;Min_cycle;Max_cycle;Signal;HPM_P1;HPM_P2
2023/12/04 00:01:17;;;;;;;;;;;;;;;4.72;79.00;95599.56;5073975;28;1032;-64
2023/12/04 00:03:43;;;;;;;;;;;;;;;4.73;78.95;95601.25;5089699;28;1048;-64
2023/12/04 00:06:10;;;;;;;;;;;;;;;4.55;78.05;95608.75;5089682;28;1062;-70
2023/12/04 00:08:36;;;;;;;;;;;;;;;4.73;76.62;95613.66;5073832;28;1914;-67
2023/12/04 00:11:03;;;;;;;;;;;;;;;4.70;76.29;95617.38;5074080;28;1036;-67
2023/12/04 00:13:29;;;;;;;;;;;;;;;4.66;76.40;95615.91;5073776;28;1033;-66
2023/12/04 00:15:55;;;;;;;;;;;;;;;4.53;78.01;95615.13;5073535;28;1015;-67
2023/12/04 00:18:21;;;;;;;;;;;;;;;4.57;77.99;95608.66;5072691;28;971;-66
2023/12/04 00:20:48;;;;;;;;;;;;;;;4.59;76.53;95617.31;5073842;28;1029;-67
2023/12/04 00:23:14;;;;;;;;;;;;;;;4.61;76.29;95626.88;5073713;28;994;-66
2023/12/04 00:25:40;;;;;;;;;;;;;;;4.53;77.86;95628.38;5072255;28;1215;-67
2023/12/04 00:28:06;;;;;;;;;;;;;;;4.32;78.06;95630.78;5073444;28;1987;-67
2023/12/04 00:30:32;;;;;;;;;;;;;;;4.35;79.63;95634.06;5073263;28;1247;-66
2023/12/04 00:32:58;;;;;;;;;;;;;;;4.54;77.74;95636.22;5073452;28;1028;-67
2023/12/04 00:35:24;;;;;;;;;;;;;;;4.45;77.83;95636.88;5073622;28;1045;-67
2023/12/04 00:37:50;;;;;;;;;;;;;;;4.45;76.74;95629.78;5073384;28;1231;-67
2023/12/04 00:40:16;;;;;;;;;;;;;;;4.52;78.36;95634.63;5073272;28;1287;-67
2023/12/04 00:42:42;;;;;;;;;;;;;;;4.45;80.26;95650.13;5073291;28;1064;-67
2023/12/04 00:45:08;;;;;;;;;;;;;;;4.37;80.23;95645.38;5073306;28;980;-67
2023/12/04 00:47:34;;;;;;;;;;;;;;;4.16;81.40;95644.28;5073445;28;1910;-67
2023/12/04 00:50:00;;;;;;;;;;;;;;;4.33;81.89;95648.38;5073259;28;1095;-67
2023/12/04 00:52:26;;;;;;;;;;;;;;;4.49;79.35;95657.72;5073587;28;1067;-67
2023/12/04 00:54:53;;;;;;;;;;;;;;;4.66;78.01;95656.47;5073037;28;1217;-67
2023/12/04 00:57:19;;;;;;;;;;;;;;;4.57;78.17;95658.97;5073197;28;1061;-67
2023/12/04 00:59:45;;;;;;;;;;;;;;;4.54;78.90;95670.63;5073067;28;968;-67
2023/12/04 01:02:11;;;;;;;;;;;;;;;4.52;78.65;95669.06;5073378;28;974;-67
2023/12/04 01:04:41;;;;;;;;;;;;;;;4.34;78.89;95666.78;5072955;28;1025;-67
2023/12/04 01:07:07;;;;;;;;;;;;;;;4.32;79.61;95663.38;5073391;28;1232;-67
2023/12/04 01:09:36;;;;;;;;;;;;;;;4.41;78.24;95670.66;5073212;28;1882;-67
2023/12/04 01:12:03;;;;;;;;;;;;;;;4.37;78.09;95665.72;5073383;28;969;-67
2023/12/04 01:14:29;;;;;;;;;;;;;;;4.30;79.67;95673.25;5072973;28;1211;-68
2023/12/04 01:16:55;;;;;;;;;;;;;;;4.20;80.24;95677.50;5073280;28;1059;-68
2023/12/04 01:19:21;;;;;;;;;;;;;;;4.11;80.09;95669.25;5073338;28;1012;-68
2023/12/04 01:21:47;;;;;;;;;;;;;;;4.16;80.59;95673.41;5072733;28;1025;-68
2023/12/04 01:24:14;;;;;;;;;;;;;;;4.00;81.62;95678.91;5074858;28;1024;-67
2023/12/04 01:26:41;;;;;;;;;;;;;;;3.92;81.47;95674.16;5076439;28;1024;-68
2023/12/04 01:29:07;;;;;;;;;;;;;;;3.90;79.92;95673.44;5076887;28;1927;-68
2023/12/04 01:31:33;;;;;;;;;;;;;;;3.98;80.73;95671.06;5076890;28;1045;-67
2023/12/04 01:33:59;;;;;;;;;;;;;;;4.05;80.53;95676.81;5077189;28;1048;-67
2023/12/04 01:36:25;;;;;;;;;;;;;;;4.09;80.87;95679.09;5076759;28;1095;-68
2023/12/04 01:38:51;;;;;;;;;;;;;;;4.35;78.43;95684.34;5075305;28;1242;-67
2023/12/04 01:41:17;;;;;;;;;;;;;;;4.28;78.46;95683.09;5076974;28;1079;-67
2023/12/04 01:43:43;;;;;;;;;;;;;;;4.22;78.61;95672.97;5076548;28;1083;-68
2023/12/04 01:46:09;;;;;;;;;;;;;;;4.14;79.68;95677.97;5076859;28;1068;-67
2023/12/04 01:48:36;;;;;;;;;;;;;;;4.17;78.57;95683.84;5075429;28;2013;-67
2023/12/04 01:51:05;;;;;;;;;;;;;;;4.20;78.93;95688.09;5076644;28;985;-67
2023/12/04 01:53:32;;;;;;;;;;;;;;;4.17;77.25;95681.22;5076479;28;1224;-68
2023/12/04 01:55:59;;;;;;;;;;;;;;;3.96;77.41;95686.22;5076433;28;1013;-68
2023/12/04 01:58:25;;;;;;;;;;;;;;;3.99;77.25;95690.47;5076340;28;970;-68
2023/12/04 02:00:51;;;;;;;;;;;;;;;3.72;78.23;95684.34;5076428;28;1050;-68
2023/12/04 02:03:17;;;;;;;;;;;;;;;3.74;78.46;95693.94;5076360;28;1057;-68
2023/12/04 02:05:47;;;;;;;;;;;;;;;3.73;78.71;95698.41;5076486;28;1154;-67
2023/12/04 02:08:13;;;;;;;;;;;;;;;3.85;76.84;95705.50;5076030;28;1991;-67
2023/12/04 02:10:39;;;;;;;;;;;;;;;3.90;77.50;95699.88;5091910;28;1024;-67
2023/12/04 02:13:06;;;;;;;;;;;;;;;3.77;78.77;95710.47;5076341;28;1024;-68
2023/12/04 02:15:33;;;;;;;;;;;;;;;3.85;77.26;95707.28;5075961;28;1120;-68
2023/12/04 02:17:59;;;;;;;;;;;;;;;3.83;78.29;95712.72;5076150;28;958;-68
2023/12/04 02:20:32;;;;;;;;;;;;;;;3.63;78.08;95707.94;5076239;28;1008;-68
2023/12/04 02:22:58;;;;;;;;;;;;;;;3.54;78.94;95708.56;5076200;28;980;-68
2023/12/04 02:25:24;;;;;;;;;;;;;;;3.52;79.52;95706.84;5076083;28;974;-67
2023/12/04 02:27:52;;;;;;;;;;;;;;;3.50;78.25;95715.84;5075646;28;1906;-67
2023/12/04 02:30:19;;;;;;;;;;;;;;;3.49;76.30;95714.16;5075953;28;1072;-65
2023/12/04 02:32:47;;;;;;;;;;;;;;;3.37;75.20;95725.56;5075598;28;1096;-67
2023/12/04 02:35:19;;;;;;;;;;;;;;;3.30;75.49;95715.41;5075464;28;1038;-67
2023/12/04 02:37:45;;;;;;;;;;;;;;;3.28;75.95;95721.72;5074520;28;1204;-67
2023/12/04 02:40:12;;;;;;;;;;;;;;;3.32;75.60;95720.59;5075573;28;993;-68
2023/12/04 02:42:38;;;;;;;;;;;;;;;3.28;76.31;95712.03;5074584;28;1020;-69
2023/12/04 02:45:04;;;;;;;;;;;;;;;3.29;76.30;95716.34;5074421;28;1065;-68
2023/12/04 02:47:30;;;;;;;;;;;;;;;3.18;76.26;95718.00;5091241;28;969;-69
2023/12/04 02:49:56;;;;;;;;;;;;;;;3.30;76.07;95718.06;5075405;28;1068;-68
2023/12/04 02:52:22;;;;;;;;;;;;;;;3.44;76.49;95724.22;5075449;28;1036;-68
2023/12/04 02:54:48;;;;;;;;;;;;;;;3.40;76.08;95717.44;5074279;28;1245;-69
2023/12/04 02:57:14;;;;;;;;;;;;;;;3.58;76.27;95725.91;5075659;28;969;-69
2023/12/04 02:59:40;;;;;;;;;;;;;;;3.51;75.52;95718.41;5075183;28;1025;-68
2023/12/04 03:02:06;;;;;;;;;;;;;;;3.37;75.84;95720.28;5075542;28;1000;-68
2023/12/04 03:04:33;;;;;;;;;;;;;;;3.51;76.84;95714.91;5075233;28;1064;-68
2023/12/04 03:06:59;;;;;;;;;;;;;;;3.65;74.87;95713.97;5075212;28;1052;-68
2023/12/04 03:09:25;;;;;;;;;;;;;;;3.64;76.62;95718.41;5074994;28;1987;-68
2023/12/04 03:11:51;;;;;;;;;;;;;;;3.67;76.47;95720.00;5075191;28;946;-68
2023/12/04 03:14:17;;;;;;;;;;;;;;;3.63;77.17;95721.16;5075169;28;974;-67
2023/12/04 03:16:43;;;;;;;;;;;;;;;3.60;77.41;95739.88;5074773;28;1021;-69
2023/12/04 03:19:09;;;;;;;;;;;;;;;3.64;74.66;95736.06;5074879;28;1045;-68
2023/12/04 03:21:35;;;;;;;;;;;;;;;3.58;74.67;95728.56;5074802;28;1044;-68
2023/12/04 03:24:01;;;;;;;;;;;;;;;3.59;75.29;95736.38;5074675;28;1104;-68
2023/12/04 03:26:28;;;;;;;;;;;;;;;3.69;75.77;95732.16;5074992;28;1012;-68
2023/12/04 03:28:54;;;;;;;;;;;;;;;3.58;76.00;95733.84;5074658;28;1938;-67
2023/12/04 03:31:22;;;;;;;;;;;;;;;3.45;76.98;95744.38;5074945;28;973;-68
2023/12/04 03:33:48;;;;;;;;;;;;;;;3.57;73.32;95743.56;5074584;28;1044;-68
2023/12/04 03:36:14;;;;;;;;;;;;;;;3.62;73.37;95743.25;5074557;28;1111;-68
2023/12/04 03:38:40;;;;;;;;;;;;;;;3.45;73.87;95744.38;5074158;28;1084;-68
2023/12/04 03:41:13;;;;;;;;;;;;;;;3.60;71.99;95740.69;5074739;28;962;-67
2023/12/04 03:43:39;;;;;;;;;;;;;;;3.42;72.24;95745.44;5074420;28;1045;-68
2023/12/04 03:46:05;;;;;;;;;;;;;;;3.44;73.00;95748.84;5074012;28;1017;-68
2023/12/04 03:48:31;;;;;;;;;;;;;;;3.47;73.26;95753.06;5073971;28;1987;-68
2023/12/04 03:50:57;;;;;;;;;;;;;;;3.33;73.03;95756.63;5074183;28;974;-68
2023/12/04 03:53:23;;;;;;;;;;;;;;;3.20;74.88;95750.47;5072959;28;1136;-68
2023/12/04 03:55:49;;;;;;;;;;;;;;;3.25;72.96;95757.16;5073994;28;1248;-68
2023/12/04 03:58:15;;;;;;;;;;;;;;;3.36;73.59;95761.72;5074405;28;1050;-68
2023/12/04 04:00:43;;;;;;;;;;;;;;;3.32;74.68;95768.19;5074008;28;1042;-69
2023/12/04 04:03:09;;;;;;;;;;;;;;;3.30;75.15;95764.75;5074095;28;976;-69
2023/12/04 04:05:35;;;;;;;;;;;;;;;3.25;74.44;95770.38;5073896;28;975;-68
2023/12/04 04:08:01;;;;;;;;;;;;;;;3.13;73.51;95768.53;5073829;28;1914;-68
2023/12/04 04:10:27;;;;;;;;;;;;;;;3.05;72.77;95770.81;5074207;28;983;-68
2023/12/04 04:12:53;;;;;;;;;;;;;;;3.13;72.60;95772.03;5073908;28;1080;-69
2023/12/04 04:15:19;;;;;;;;;;;;;;;3.07;72.41;95774.19;5074096;28;958;-69
2023/12/04 04:17:45;;;;;;;;;;;;;;;3.04;72.61;95774.41;5072823;28;987;-69
2023/12/04 04:20:12;;;;;;;;;;;;;;;2.87;73.31;95784.28;5073717;28;1041;-69
2023/12/04 04:22:39;;;;;;;;;;;;;;;2.78;73.10;95782.22;5073528;28;997;-69
2023/12/04 04:25:06;;;;;;;;;;;;;;;2.89;72.66;95782.38;5073676;28;1000;-69
2023/12/04 04:27:32;;;;;;;;;;;;;;;2.91;71.61;95784.94;5073861;28;979;-69
2023/12/04 04:29:58;;;;;;;;;;;;;;;2.79;72.69;95786.56;5073791;28;1901;-69
2023/12/04 04:32:24;;;;;;;;;;;;;;;2.68;72.86;95783.75;5072501;28;978;-68
2023/12/04 04:34:49;;;;;;;;;;;;;;;2.80;73.34;95790.88;5073446;28;1115;-68
2023/12/04 04:37:15;;;;;;;;;;;;;;;2.81;73.50;95787.31;5073449;28;1072;-69
2023/12/04 04:39:41;;;;;;;;;;;;;;;2.81;74.22;95794.38;5073258;28;1085;-68
2023/12/04 04:42:07;;;;;;;;;;;;;;;2.80;74.80;95800.63;5073783;28;1057;-69
2023/12/04 04:44:33;;;;;;;;;;;;;;;3.02;73.65;95811.50;5073408;28;979;-69
2023/12/04 04:46:59;;;;;;;;;;;;;;;3.16;72.65;95810.59;5073313;28;1045;-69
2023/12/04 04:49:25;;;;;;;;;;;;;;;3.02;74.54;95818.59;5073263;28;2009;-68
2023/12/04 04:51:51;;;;;;;;;;;;;;;2.86;73.39;95816.91;5071829;28;915;-69
2023/12/04 04:54:17;;;;;;;;;;;;;;;2.86;73.11;95824.00;5073352;28;1237;-69
2023/12/04 04:56:43;;;;;;;;;;;;;;;2.91;73.87;95822.75;5073330;28;1056;-68
2023/12/04 04:59:09;;;;;;;;;;;;;;;2.89;72.84;95822.00;5072559;28;1047;-70
2023/12/04 05:01:36;;;;;;;;;;;;;;;2.92;73.29;95824.47;5073083;28;1099;-68
2023/12/04 05:04:02;;;;;;;;;;;;;;;3.06;72.32;95831.50;5073158;28;988;-65
2023/12/04 05:06:28;;;;;;;;;;;;;;;2.98;72.61;95830.28;5072969;28;1088;-68
2023/12/04 05:08:54;;;;;;;;;;;;;;;3.14;73.40;95836.28;5072955;28;1910;-67
2023/12/04 05:11:20;;;;;;;;;;;;;;;3.12;72.87;95841.66;5071775;28;1092;-68
2023/12/04 05:13:46;;;;;;;;;;;;;;;3.05;73.43;95837.72;5073138;28;978;-68
2023/12/04 05:16:12;;;;;;;;;;;;;;;3.13;73.42;95840.72;5072865;28;1024;-66
2023/12/04 05:18:39;;;;;;;;;;;;;;;3.18;73.63;95851.00;5073276;28;1033;-67
2023/12/04 05:21:11;;;;;;;;;;;;;;;3.29;72.59;95845.03;5072941;28;1028;-67
2023/12/04 05:23:39;;;;;;;;;;;;;;;3.31;72.74;95846.59;5073154;28;1055;-65
2023/12/04 05:26:06;;;;;;;;;;;;;;;3.33;73.81;95847.34;5073222;28;974;-69
2023/12/04 05:28:32;;;;;;;;;;;;;;;3.33;73.37;95844.69;5072708;28;1983;-68
2023/12/04 05:30:58;;;;;;;;;;;;;;;3.38;74.09;95846.19;5072979;28;993;-68
2023/12/04 05:33:24;;;;;;;;;;;;;;;3.32;73.48;95847.47;5072844;28;1107;-68
2023/12/04 05:35:53;;;;;;;;;;;;;;;3.44;73.61;95851.94;5072718;28;1041;-68
2023/12/04 05:38:19;;;;;;;;;;;;;;;3.50;73.24;95850.69;5072738;28;1066;-68
2023/12/04 05:40:45;;;;;;;;;;;;;;;3.44;73.49;95844.00;5072692;28;1036;-70
2023/12/04 05:43:11;;;;;;;;;;;;;;;3.40;73.59;95845.16;5072736;28;1029;-71
2023/12/04 05:45:38;;;;;;;;;;;;;;;3.29;74.79;95843.22;5072973;28;992;-69
2023/12/04 05:48:04;;;;;;;;;;;;;;;3.36;74.34;95850.72;5072504;28;1987;-68
2023/12/04 05:50:30;;;;;;;;;;;;;;;3.43;72.55;95847.59;5072839;28;981;-69
2023/12/04 05:52:56;;;;;;;;;;;;;;;3.42;73.28;95850.34;5071266;28;1044;-70
2023/12/04 05:55:22;;;;;;;;;;;;;;;3.29;73.12;95842.38;5038574;28;1256;-71
2023/12/04 05:57:48;;;;;;;;;;;;;;;3.52;70.44;95849.63;5035275;28;1005;-71
2023/12/04 06:00:14;;;;;;;;;;;;;;;3.43;71.08;95850.22;5052572;28;1061;-71
2023/12/04 06:02:45;;;;;;;;;;;;;;;3.27;71.86;95853.03;5035203;28;1038;-72
2023/12/04 06:05:11;;;;;;;;;;;;;;;3.20;71.59;95856.19;5052687;28;994;-70
2023/12/04 06:07:37;;;;;;;;;;;;;;;3.41;71.06;95846.84;5035221;28;929;-72
2023/12/04 06:10:04;;;;;;;;;;;;;;;3.66;70.22;95840.81;5053682;28;1983;-74
2023/12/04 06:12:30;;;;;;;;;;;;;;;3.75;69.82;95839.34;5038309;28;1029;-69
2023/12/04 06:14:58;;;;;;;;;;;;;;;3.69;69.46;95835.28;5056414;28;1073;-68
2023/12/04 06:17:24;;;;;;;;;;;;;;;3.46;69.22;95850.03;5055970;28;903;-68
2023/12/04 06:19:50;;;;;;;;;;;;;;;3.10;70.48;95848.00;5056336;28;1070;-69
2023/12/04 06:22:19;;;;;;;;;;;;;;;3.45;71.63;95847.50;5055940;28;1216;-70
2023/12/04 06:24:46;;;;;;;;;;;;;;;4.08;67.74;95857.38;5056019;28;1045;-65
2023/12/04 06:27:15;;;;;;;;;;;;;;;4.54;66.08;95856.03;5056111;28;1051;-65
2023/12/04 06:29:41;;;;;;;;;;;;;;;4.83;64.32;95859.25;5038197;28;2003;-69
2023/12/04 06:32:08;;;;;;;;;;;;;;;5.00;63.54;95862.53;5038499;28;1065;-67
2023/12/04 06:34:34;;;;;;;;;;;;;;;6.74;59.94;95869.03;5037985;28;1104;-68
2023/12/04 06:37:02;;;;;;;;;;;;;;;8.69;52.67;95894.88;5056101;28;951;-68
2023/12/04 06:39:32;;;;;;;;;;;;;;;10.47;47.52;95904.03;5070210;28;1236;-69
2023/12/04 06:41:58;;;;;;;;;;;;;;;11.96;43.19;95919.31;5075993;28;1088;-69
2023/12/04 06:44:25;;;;;;;;;;;;;;;12.95;41.17;95931.78;5075848;28;1001;-67
2023/12/04 06:46:51;;;;;;;;;;;;;;;14.06;38.48;95939.13;5075565;28;1139;-67
2023/12/04 06:49:18;;;;;;;;;;;;;;;13.88;38.09;95944.59;5057915;28;1999;-68
2023/12/04 06:51:44;;;;;;;;;;;;;;;14.45;38.13;95947.44;5075843;28;1053;-66
2023/12/04 06:54:11;;;;;;;;;;;;;;;15.24;36.46;95960.44;5075434;28;1241;-66
2023/12/04 06:56:38;;;;;;;;;;;;;;;15.57;35.34;95958.50;5075438;28;1076;-66
2023/12/04 06:59:04;;;;;;;;;;;;;;;15.67;34.65;95961.03;5075480;28;966;-66
2023/12/04 07:01:30;;;;;;;;;;;;;;;16.05;34.36;95961.28;5075439;28;1016;-66
2023/12/04 07:03:56;;;;;;;;;;;;;;;16.20;33.81;95967.59;5075561;28;986;-66
2023/12/04 07:06:22;;;;;;;;;;;;;;;15.92;33.54;95961.00;5075711;28;1064;-66
2023/12/04 07:08:48;;;;;;;;;;;;;;;15.98;33.82;95958.41;5075393;28;1986;-66
2023/12/04 07:11:16;;;;;;;;;;;;;;;16.20;33.51;95964.91;5075013;28;1021;-66
2023/12/04 07:13:42;;;;;;;;;;;;;;;17.16;32.19;95970.84;5075021;28;1110;-65
2023/12/04 07:16:08;;;;;;;;;;;;;;;17.21;31.86;95972.19;5075237;28;954;-66
2023/12/04 07:18:34;;;;;;;;;;;;;;;16.90;31.86;95971.25;5074714;28;993;-66
2023/12/04 07:21:00;;;;;;;;;;;;;;;17.18;32.13;95976.09;5074187;28;1640;-67
2023/12/04 07:23:26;;;;;;;;;;;;;;;16.94;32.16;95969.00;5074544;28;970;-67
2023/12/04 07:25:52;;;;;;;;;;;;;;;17.30;31.71;95977.34;5074963;28;981;-68
2023/12/04 07:28:19;;;;;;;;;;;;;;;17.38;31.45;95981.84;5074048;28;1914;-67
2023/12/04 07:30:45;;;;;;;;;;;;;;;17.21;32.16;95974.91;5074713;28;1060;-68
2023/12/04 07:33:11;;;;;;;;;;;;;;;16.80;32.46;95981.41;5074858;28;1049;-67
2023/12/04 07:35:37;;;;;;;;;;;;;;;15.53;33.56;95967.97;5074720;28;1033;-67
2023/12/04 07:38:03;;;;;;;;;;;;;;;14.87;35.37;95966.34;5074585;28;1082;-68
2023/12/04 07:40:29;;;;;;;;;;;;;;;12.89;38.63;95961.94;5074342;28;1092;-67
2023/12/04 07:42:55;;;;;;;;;;;;;;;10.74;42.57;95952.31;5074710;28;1073;-68
2023/12/04 07:45:21;;;;;;;;;;;;;;;9.01;45.97;95939.25;5074172;28;1044;-68
2023/12/04 07:47:47;;;;;;;;;;;;;;;7.55;51.21;95920.25;5074423;28;1915;-68
2023/12/04 07:50:13;;;;;;;;;;;;;;;6.53;54.80;95906.09;5074148;28;1100;-69
2023/12/04 07:52:39;;;;;;;;;;;;;;;6.20;56.92;95889.13;5074428;28;1052;-69
2023/12/04 07:58:27;;;;;;;;;;;;;;;5.59;58.98;95877.72;5074223;28;675;-69
2023/12/04 08:00:53;;;;;;;;;;;;;;;5.47;60.12;95868.84;5074036;28;1032;-69
2023/12/04 08:03:19;;;;;;;;;;;;;;;5.60;59.87;95876.75;5074216;28;1066;-69
2023/12/04 08:05:45;;;;;;;;;;;;;;;5.70;59.29;95885.72;5073988;28;1045;-69
2023/12/04 08:08:11;;;;;;;;;;;;;;;5.72;60.33;95888.28;5073997;28;1914;-70
2023/12/04 08:10:37;;;;;;;;;;;;;;;5.46;60.28;95883.94;5074068;28;1080;-70
2023/12/04 08:13:03;;;;;;;;;;;;;;;5.37;60.44;95889.03;5073780;28;1057;-70
2023/12/04 08:15:29;;;;;;;;;;;;;;;5.50;59.64;95889.81;5073640;28;811;-70
2023/12/04 08:17:57;;;;;;;;;;;;;;;5.62;60.83;95886.28;5073666;28;1041;-70
2023/12/04 08:20:23;;;;;;;;;;;;;;;5.78;59.45;95882.50;5073570;28;1044;-70
2023/12/04 08:22:49;;;;;;;;;;;;;;;5.59;62.11;95869.75;5073626;28;1071;-70
2023/12/04 08:25:15;;;;;;;;;;;;;;;5.70;59.73;95879.59;5073510;28;1064;-70
2023/12/04 08:27:41;;;;;;;;;;;;;;;5.83;59.55;95883.03;5073732;28;988;-70
2023/12/04 08:30:08;;;;;;;;;;;;;;;5.86;60.32;95886.28;5073475;28;1910;-70
2023/12/04 08:32:34;;;;;;;;;;;;;;;5.74;59.22;95892.50;5073235;28;973;-70
2023/12/04 08:35:00;;;;;;;;;;;;;;;6.16;58.91;95890.28;5073534;28;973;-70
2023/12/04 08:37:26;;;;;;;;;;;;;;;6.44;57.72;95891.69;5073161;28;1041;-69
2023/12/04 08:39:53;;;;;;;;;;;;;;;6.51;56.26;95902.69;5073215;28;1077;-70
2023/12/04 08:42:19;;;;;;;;;;;;;;;6.94;54.51;95901.16;5073236;28;1091;-71
2023/12/04 08:44:47;;;;;;;;;;;;;;;6.71;57.55;95892.34;5073356;28;1033;-71
2023/12/04 08:47:13;;;;;;;;;;;;;;;7.03;56.96;95909.25;5055606;28;1050;-71
2023/12/04 08:49:40;;;;;;;;;;;;;;;6.98;55.98;95913.25;5073279;28;1981;-67
2023/12/04 08:52:07;;;;;;;;;;;;;;;6.83;54.75;95912.66;5073224;28;1040;-70
2023/12/04 08:54:33;;;;;;;;;;;;;;;6.81;55.37;95907.47;5072881;28;1293;-70
2023/12/04 08:56:59;;;;;;;;;;;;;;;6.92;54.97;95909.25;5073356;28;970;-70
2023/12/04 08:59:26;;;;;;;;;;;;;;;7.24;53.47;95901.41;5073023;28;1030;-69
2023/12/04 09:01:52;;;;;;;;;;;;;;;7.51;53.50;95904.63;5073384;28;1040;-69
2023/12/04 09:04:18;;;;;;;;;;;;;;;7.87;52.83;95911.44;5073258;28;1004;-70
2023/12/04 09:06:44;;;;;;;;;;;;;;;7.96;49.77;95912.50;5071788;28;2464;-69
2023/12/04 09:09:11;;;;;;;;;;;;;;;7.90;50.77;95907.69;5072969;28;1901;-69
2023/12/04 09:11:40;;;;;;;;;;;;;;;7.88;51.35;95901.66;5073182;28;937;-69
2023/12/04 09:14:06;;;;;;;;;;;;;;;7.74;50.16;95908.09;5055371;28;959;-67
2023/12/04 09:16:32;;;;;;;;;;;;;;;8.14;50.18;95895.00;5073144;28;1056;-68
2023/12/04 09:18:58;;;;;;;;;;;;;;;8.58;50.33;95897.59;5072953;28;1041;-68
2023/12/04 09:21:24;;;;;;;;;;;;;;;8.45;49.76;95900.44;5072787;28;1040;-68
2023/12/04 09:23:50;;;;;;;;;;;;;;;7.90;51.09;95897.88;5072795;28;1147;-67
2023/12/04 09:26:17;;;;;;;;;;;;;;;7.82;51.11;95900.34;5072733;28;1036;-67
2023/12/04 09:28:43;;;;;;;;;;;;;;;8.23;50.36;95897.88;5072638;28;1987;-66
2023/12/04 09:31:09;;;;;;;;;;;;;;;8.27;49.21;95897.50;5073009;28;1039;-66
2023/12/04 09:33:36;;;;;;;;;;;;;;;8.63;49.26;95900.69;5072579;28;1021;-66
2023/12/04 09:36:03;;;;;;;;;;;;;;;8.64;49.00;95909.56;5072908;28;1040;-66
2023/12/04 09:38:29;;;;;;;;;;;;;;;8.78;49.55;95890.53;5072359;28;1228;-66
2023/12/04 09:40:58;;;;;;;;;;;;;;;9.41;49.00;95890.41;5072768;28;977;-59
2023/12/04 09:43:24;;;;;;;;;;;;;;;9.73;46.88;95894.69;5072811;28;985;-62
2023/12/04 09:45:50;;;;;;;;;;;;;;;9.67;45.67;95892.56;5075258;28;1040;-61
2023/12/04 09:48:16;;;;;;;;;;;;;;;9.47;47.44;95889.88;5076511;28;1987;-61
2023/12/04 09:50:43;;;;;;;;;;;;;;;9.30;47.17;95887.84;5076471;28;990;-61
2023/12/04 09:53:10;;;;;;;;;;;;;;;9.37;46.73;95888.97;5076709;28;1048;-62
2023/12/04 09:55:36;;;;;;;;;;;;;;;9.43;45.26;95890.25;5058845;28;1241;-63
2023/12/04 09:58:03;;;;;;;;;;;;;;;9.42;46.31;95891.25;5056375;28;1061;-63
2023/12/04 10:00:31;;;;;;;;;;;;;;;10.07;45.41;95884.50;5056268;28;1080;-63
2023/12/04 10:02:58;;;;;;;;;;;;;;;9.88;45.45;95889.78;5056567;28;968;-63
2023/12/04 10:05:23;;;;;;;;;;;;;;;9.84;45.63;95878.53;5056039;28;974;-65
2023/12/04 10:07:49;;;;;;;;;;;;;;;9.73;44.38;95870.66;5065068;28;1914;-65
2023/12/04 10:10:15;;;;;;;;;;;;;;;10.53;44.23;95871.41;5076343;28;974;-67
2023/12/04 10:12:42;;;;;;;;;;;;;;;10.75;44.19;95870.22;5076398;28;978;-67
2023/12/04 10:15:10;;;;;;;;;;;;;;;10.47;43.25;95867.47;5076075;28;1012;-67
2023/12/04 10:17:39;;;;;;;;;;;;;;;10.07;44.04;95864.91;5076092;28;1048;-66
2023/12/04 10:20:15;;;;;;;;;;;;;;;9.97;45.54;95865.75;5076078;28;982;-67
2023/12/04 10:22:54;;;;;;;;;;;;;;;9.98;43.83;95863.94;5076011;28;1025;-62
2023/12/04 10:25:21;;;;;;;;;;;;;;;9.50;42.13;95867.38;5076163;28;1053;-61
2023/12/04 10:27:47;;;;;;;;;;;;;;;9.91;44.08;95849.47;5075806;28;1125;-62
2023/12/04 10:30:26;;;;;;;;;;;;;;;10.28;43.90;95851.41;5075714;28;1914;-64
2023/12/04 10:32:54;;;;;;;;;;;;;;;10.53;43.51;95850.03;5076069;28;965;-65
2023/12/04 10:35:19;;;;;;;;;;;;;;;10.53;40.94;95850.84;5075914;28;981;-64
2023/12/04 10:37:45;;;;;;;;;;;;;;;10.02;40.90;95852.00;5075562;28;1097;-64
2023/12/04 10:40:22;;;;;;;;;;;;;;;9.94;42.74;95843.81;5075870;28;969;-63
2023/12/04 10:42:48;;;;;;;;;;;;;;;10.32;43.46;95843.00;5075630;28;1037;-64
2023/12/04 10:45:14;;;;;;;;;;;;;;;10.57;44.17;95832.69;5075510;28;1047;-65
2023/12/04 10:47:40;;;;;;;;;;;;;;;10.86;43.67;95835.28;5075832;28;975;-65
2023/12/04 10:50:07;;;;;;;;;;;;;;;10.43;42.37;95836.63;5075660;28;1913;-65
2023/12/04 10:52:33;;;;;;;;;;;;;;;10.38;42.93;95843.41;5075321;28;1025;-63
2023/12/04 10:54:59;;;;;;;;;;;;;;;10.13;44.65;95826.94;5075337;28;1599;-60
2023/12/04 10:57:33;;;;;;;;;;;;;;;9.59;43.84;95831.84;5075501;28;976;-65
2023/12/04 11:00:02;;;;;;;;;;;;;;;9.72;44.74;95818.25;5075703;28;966;-65
2023/12/04 11:02:29;;;;;;;;;;;;;;;9.87;45.00;95819.50;5075657;28;1065;-66
2023/12/04 11:04:59;;;;;;;;;;;;;;;9.93;45.26;95815.44;5075333;28;1021;-65
2023/12/04 11:07:27;;;;;;;;;;;;;;;9.54;44.03;95821.59;5075525;28;1445;-63
2023/12/04 11:09:54;;;;;;;;;;;;;;;9.49;46.52;95823.84;5075286;28;1906;-63
2023/12/04 11:12:25;;;;;;;;;;;;;;;9.83;45.61;95817.28;5075076;28;1041;-63
2023/12/04 11:14:54;;;;;;;;;;;;;;;9.71;45.27;95821.88;5075230;28;1025;-63
2023/12/04 11:17:20;;;;;;;;;;;;;;;9.12;44.40;95827.09;5075328;28;978;-63
2023/12/04 11:19:46;;;;;;;;;;;;;;;9.05;46.06;95809.09;5075121;28;1049;-64
2023/12/04 11:22:14;;;;;;;;;;;;;;;8.93;45.31;95806.53;5073873;28;1036;-63
2023/12/04 11:24:40;;;;;;;;;;;;;;;8.71;45.73;95796.09;5074897;28;1114;-63
2023/12/04 11:27:07;;;;;;;;;;;;;;;9.09;46.97;95799.88;5075256;28;1056;-64
2023/12/04 11:29:34;;;;;;;;;;;;;;;9.10;47.17;95790.88;5057134;28;1906;-64
2023/12/04 11:32:00;;;;;;;;;;;;;;;9.21;45.51;95790.75;5075076;28;978;-64
2023/12/04 11:34:26;;;;;;;;;;;;;;;9.03;45.57;95790.59;5057199;28;962;-64
2023/12/04 11:36:52;;;;;;;;;;;;;;;9.25;47.56;95783.34;5074680;28;1029;-64
2023/12/04 11:39:18;;;;;;;;;;;;;;;9.12;48.48;95787.06;5074611;28;1211;-64
2023/12/04 11:41:45;;;;;;;;;;;;;;;9.23;48.94;95774.63;5074955;28;1076;-64
2023/12/04 11:44:16;;;;;;;;;;;;;;;9.35;46.87;95778.84;5074617;28;1009;-64
2023/12/04 11:47:01;;;;;;;;;;;;;;;9.32;47.53;95782.63;5074685;28;987;-64
2023/12/04 11:49:31;;;;;;;;;;;;;;;9.18;46.90;95772.34;5074517;28;1983;-65
2023/12/04 11:51:57;;;;;;;;;;;;;;;9.31;47.18;95769.44;5074259;28;1033;-65
2023/12/04 11:54:26;;;;;;;;;;;;;;;9.68;46.06;95769.59;5074461;28;1336;-65
2023/12/04 11:56:59;;;;;;;;;;;;;;;9.61;46.80;95760.47;5074601;28;1035;-65
2023/12/04 11:59:25;;;;;;;;;;;;;;;9.70;46.54;95756.13;5074179;28;1044;-65
2023/12/04 12:01:57;;;;;;;;;;;;;;;9.70;46.87;95750.78;5074182;28;1001;-65
2023/12/04 12:04:23;;;;;;;;;;;;;;;9.33;45.97;95757.66;5074362;28;1045;-64
2023/12/04 12:06:49;;;;;;;;;;;;;;;8.92;46.48;95758.69;5074073;28;1007;-63
2023/12/04 12:09:16;;;;;;;;;;;;;;;8.78;48.12;95755.41;5073468;28;1929;-63
2023/12/04 12:11:42;;;;;;;;;;;;;;;8.94;48.72;95749.56;5074238;28;982;-65
2023/12/04 12:14:08;;;;;;;;;;;;;;;8.96;47.18;95758.25;5074114;28;973;-65
2023/12/04 12:16:35;;;;;;;;;;;;;;;8.75;47.40;95752.19;5073904;28;1088;-65
2023/12/04 12:19:01;;;;;;;;;;;;;;;8.48;47.07;95744.75;5074197;28;970;-65
2023/12/04 12:21:28;;;;;;;;;;;;;;;8.50;46.98;95737.47;5073718;28;1036;-64
2023/12/04 12:23:54;;;;;;;;;;;;;;;8.45;48.44;95742.38;5073810;28;1048;-64
2023/12/04 12:26:20;;;;;;;;;;;;;;;8.42;47.41;95738.13;5073649;28;1045;-64
2023/12/04 12:28:46;;;;;;;;;;;;;;;8.46;48.26;95730.72;5073716;28;1910;-62
2023/12/04 12:31:12;;;;;;;;;;;;;;;8.27;49.14;95729.66;5073879;28;982;-62
2023/12/04 12:33:38;;;;;;;;;;;;;;;8.10;49.91;95717.78;5073707;28;1051;-64
2023/12/04 12:36:04;;;;;;;;;;;;;;;8.06;49.64;95716.34;5073606;28;1108;-64
2023/12/04 12:38:39;;;;;;;;;;;;;;;8.05;49.82;95716.50;5055694;28;1204;-65
2023/12/04 12:41:07;;;;;;;;;;;;;;;8.06;48.11;95715.50;5073530;28;1088;-64
2023/12/04 12:43:33;;;;;;;;;;;;;;;7.84;47.89;95712.03;5073421;28;1129;-65
2023/12/04 12:45:59;;;;;;;;;;;;;;;7.68;49.50;95706.31;5073396;28;1076;-64
2023/12/04 12:48:26;;;;;;;;;;;;;;;7.97;50.43;95702.00;5073362;28;1910;-61
2023/12/04 12:50:54;;;;;;;;;;;;;;;7.96;49.41;95700.31;5073692;28;910;-61
2023/12/04 12:53:20;;;;;;;;;;;;;;;7.85;48.53;95702.22;5073640;28;1006;-60
2023/12/04 12:55:47;;;;;;;;;;;;;;;7.84;49.16;95704.03;5073236;28;1226;-60
2023/12/04 12:58:13;;;;;;;;;;;;;;;7.82;48.02;95701.50;5073615;28;1064;-63
2023/12/04 13:00:41;;;;;;;;;;;;;;;7.99;51.68;95699.22;5073306;28;1057;-60
2023/12/04 13:03:15;;;;;;;;;;;;;;;7.93;49.03;95700.59;5073553;28;1052;-65
2023/12/04 13:05:41;;;;;;;;;;;;;;;7.91;50.16;95697.22;5073561;28;969;-65
2023/12/04 13:08:07;;;;;;;;;;;;;;;7.56;49.44;95703.69;5073549;28;1906;-65